This is the latest recevied weather packets stored in our database for station/object VE3CTP. If no packets are shown the sender has not sent any weather packets the latest 1 day(s).
| Time | Temp. | Humidity | Pressure | Rain* | Wind** | Luminosity | Snow |
|---|---|---|---|---|---|---|---|
| 1836274693 | 20.56° C | 100% | 0 hPa | 0 mm | 2.68 m/s, 70° | - | - |
| 1836274543 | 18.33° C | 100% | 0 hPa | 0 mm | 2.24 m/s, 90° | - | - |
| 1836274393 | 21.11° C | 100% | 0 hPa | 0 mm | 1.34 m/s, 59° | - | - |
| 1836274243 | 20.56° C | 100% | 0 hPa | 0 mm | 2.24 m/s, 94° | - | - |
| 1836274093 | 20.56° C | 100% | 0 hPa | 0 mm | 1.34 m/s, 73° | - | - |
| 1778013934 | 14.44° C | 100% | 0 hPa | 0 mm | 0.89 m/s, 258° | - | - |
| 1778013634 | 14.44° C | 100% | 0 hPa | 0 mm | 0.45 m/s, 199° | - | - |
| 1778013334 | 14.44° C | 100% | 0 hPa | 0 mm | 1.79 m/s, 279° | - | - |
| 1778013034 | 14.44° C | 100% | 0 hPa | 0 mm | 0 m/s | - | - |
| 1778012734 | 14.44° C | 100% | 0 hPa | 0 mm | 0 m/s | - | - |
| 1778012434 | 13.89° C | 100% | 0 hPa | 0 mm | 1.79 m/s, 271° | - | - |
| 1778012134 | 13.89° C | 100% | 0 hPa | 0 mm | 2.24 m/s, 246° | - | - |
| 1778011834 | 13.89° C | 100% | 0 hPa | 0 mm | 0.89 m/s, 262° | - | - |
| 1778011534 | 13.89° C | 100% | 0 hPa | 0 mm | 0.89 m/s, 240° | - | - |
| 1778011234 | 13.89° C | 100% | 0 hPa | 0 mm | 0.45 m/s, 260° | - | - |
| 1778010934 | 13.89° C | 100% | 0 hPa | 0 mm | 1.34 m/s, 244° | - | - |
| 1778010634 | 13.33° C | 100% | 0 hPa | 0 mm | 0.89 m/s, 292° | - | - |
| 1778010334 | 13.89° C | 100% | 0 hPa | 0 mm | 1.79 m/s, 246° | - | - |
| 1778010034 | 13.89° C | 100% | 0 hPa | 0 mm | 1.34 m/s, 241° | - | - |
| 1778009734 | 13.89° C | 100% | 0 hPa | 0 mm | 1.34 m/s, 277° | - | - |
| 1778009434 | 13.89° C | 100% | 0 hPa | 0 mm | 0.45 m/s, 298° | - | - |
| 1778009134 | 13.89° C | 100% | 0 hPa | 0 mm | 0.45 m/s, 277° | - | - |
| 1778008834 | 14.44° C | 100% | 0 hPa | 0 mm | 2.24 m/s, 270° | - | - |
| 1778008534 | 14.44° C | 100% | 0 hPa | 0 mm | 2.24 m/s, 251° | - | - |
| 1778008234 | 14.44° C | 100% | 0 hPa | 0 mm | 1.79 m/s, 206° | - | - |
* Rain latest hour (hover to see other rain measurements)
** Current wind speed in m/s (hover to see current wind gust speed)